Time;durP1;ratioP1;P1;durP2;ratioP2;P2;SDS_P1;SDS_P2;PMS_P1;PMS_P2;Temp;Humidity;BMP_temperature;BMP_pressure;BME280_temperature;BME280_humidity;BME280_pressure;Samples;Min_cycle;Max_cycle;Signal;HPM_P1;HPM_P2
2022/02/20 00:01:35;;;;;;;0.50;0.50;;;;;;;;;;5021330;28;20044;-86
2022/02/20 00:04:04;;;;;;;0.60;0.60;;;;;;;;;;5023004;28;20587;-85
2022/02/20 00:06:31;;;;;;;0.43;0.43;;;;;;;;;;5021250;28;20083;-78
2022/02/20 00:09:19;;;;;;;0.70;0.70;;;;;;;;;;5021904;28;20061;-79
2022/02/20 00:12:10;;;;;;;0.50;0.50;;;;;;;;;;5017967;28;20087;-79
2022/02/20 00:14:48;;;;;;;0.40;0.40;;;;;;;;;;5018535;28;20045;-79
2022/02/20 00:17:15;;;;;;;0.43;0.43;;;;;;;;;;5019657;28;20080;-79
2022/02/20 00:19:42;;;;;;;0.40;0.40;;;;;;;;;;5003181;28;20037;-79
2022/02/20 00:22:08;;;;;;;0.40;0.40;;;;;;;;;;5019800;28;21136;-79
2022/02/20 00:24:34;;;;;;;0.50;0.50;;;;;;;;;;5019596;28;20067;-79
2022/02/20 00:27:00;;;;;;;0.40;0.40;;;;;;;;;;5020199;28;20053;-79
2022/02/20 00:29:26;;;;;;;0.50;0.50;;;;;;;;;;5019861;28;20030;-80
2022/02/20 00:31:52;;;;;;;0.32;0.32;;;;;;;;;;5002830;28;20591;-79
2022/02/20 00:34:18;;;;;;;0.40;0.40;;;;;;;;;;5019486;28;20527;-79
2022/02/20 00:36:44;;;;;;;0.50;0.50;;;;;;;;;;5020082;28;20061;-79
2022/02/20 00:39:10;;;;;;;0.30;0.30;;;;;;;;;;5004092;28;20080;-79
2022/02/20 00:41:36;;;;;;;0.40;0.40;;;;;;;;;;5019415;28;20018;-79
2022/02/20 00:44:02;;;;;;;0.40;0.40;;;;;;;;;;5022437;28;20103;-79
2022/02/20 00:46:28;;;;;;;0.40;0.40;;;;;;;;;;5022812;28;20800;-79
2022/02/20 00:48:54;;;;;;;0.50;0.50;;;;;;;;;;5023035;28;20033;-80
2022/02/20 00:51:20;;;;;;;0.50;0.50;;;;;;;;;;5025627;28;20018;-79
2022/02/20 00:53:46;;;;;;;0.38;0.38;;;;;;;;;;5026292;28;20132;-78
2022/02/20 00:56:13;;;;;;;0.50;0.50;;;;;;;;;;5019046;28;20124;-79
2022/02/20 00:58:39;;;;;;;0.30;0.30;;;;;;;;;;5023578;28;20485;-78
2022/02/20 01:01:05;;;;;;;0.43;0.43;;;;;;;;;;5025671;28;20044;-79
2022/02/20 01:03:31;;;;;;;0.30;0.30;;;;;;;;;;5024722;28;20037;-77
2022/02/20 01:05:57;;;;;;;0.40;0.40;;;;;;;;;;5026614;28;20035;-77
2022/02/20 01:08:23;;;;;;;0.35;0.35;;;;;;;;;;5025724;28;20856;-77
2022/02/20 01:10:51;;;;;;;0.30;0.30;;;;;;;;;;5025735;28;20132;-81
2022/02/20 01:13:17;;;;;;;0.30;0.30;;;;;;;;;;5025656;28;20041;-80
2022/02/20 01:15:43;;;;;;;0.30;0.30;;;;;;;;;;5024147;28;20832;-80
2022/02/20 01:18:09;;;;;;;0.20;0.20;;;;;;;;;;5025717;28;20101;-80
2022/02/20 01:20:36;;;;;;;0.30;0.30;;;;;;;;;;5021433;28;20507;-80
2022/02/20 01:23:02;;;;;;;0.30;0.30;;;;;;;;;;5023994;28;20155;-80
2022/02/20 01:25:28;;;;;;;0.30;0.30;;;;;;;;;;5025353;28;20029;-80
2022/02/20 01:27:57;;;;;;;0.20;0.20;;;;;;;;;;5024964;28;20030;-80
2022/02/20 01:30:23;;;;;;;0.30;0.30;;;;;;;;;;5025493;28;20033;-80
2022/02/20 01:32:49;;;;;;;0.30;0.30;;;;;;;;;;5022475;28;20488;-79
2022/02/20 01:35:15;;;;;;;0.38;0.38;;;;;;;;;;5024411;28;20312;-80
2022/02/20 01:37:41;;;;;;;0.28;0.28;;;;;;;;;;5025005;28;20394;-80
2022/02/20 01:40:08;;;;;;;0.30;0.30;;;;;;;;;;5025348;28;20109;-79
2022/02/20 01:42:34;;;;;;;0.25;0.25;;;;;;;;;;5025097;28;20791;-80
2022/02/20 01:45:00;;;;;;;0.30;0.30;;;;;;;;;;5025608;28;20033;-80
2022/02/20 01:47:28;;;;;;;0.30;0.30;;;;;;;;;;5020834;28;20563;-80
2022/02/20 01:49:54;;;;;;;0.30;0.30;;;;;;;;;;5023045;28;20037;-80
2022/02/20 01:52:22;;;;;;;0.30;0.30;;;;;;;;;;5023628;28;20878;-80
2022/02/20 01:54:48;;;;;;;0.47;0.47;;;;;;;;;;5024654;28;20818;-79
2022/02/20 01:57:15;;;;;;;0.50;0.50;;;;;;;;;;5024227;28;20405;-80
2022/02/20 01:59:41;;;;;;;0.70;0.70;;;;;;;;;;5025236;28;20276;-80
2022/02/20 02:02:07;;;;;;;0.60;0.60;;;;;;;;;;5023825;28;20044;-79
2022/02/20 02:04:33;;;;;;;1.17;1.17;;;;;;;;;;5025114;28;20033;-79
2022/02/20 02:07:00;;;;;;;0.40;0.40;;;;;;;;;;5025241;28;20539;-78
2022/02/20 02:09:26;;;;;;;0.50;0.50;;;;;;;;;;5025436;28;20033;-79
2022/02/20 02:11:54;;;;;;;0.50;0.50;;;;;;;;;;5023651;28;20030;-79
2022/02/20 02:14:20;;;;;;;0.40;0.40;;;;;;;;;;5023924;28;20517;-81
2022/02/20 02:16:46;;;;;;;0.30;0.30;;;;;;;;;;5024501;28;20055;-81
2022/02/20 02:19:12;;;;;;;0.80;0.80;;;;;;;;;;5024809;28;20520;-83
2022/02/20 02:21:39;;;;;;;0.60;0.60;;;;;;;;;;5025274;28;20024;-83
2022/02/20 02:24:05;;;;;;;0.50;0.50;;;;;;;;;;5025359;28;20025;-80
2022/02/20 02:26:32;;;;;;;0.60;0.60;;;;;;;;;;5024715;28;20277;-81
2022/02/20 02:28:58;;;;;;;0.50;0.50;;;;;;;;;;5024802;28;20026;-81
2022/02/20 02:31:24;;;;;;;0.50;0.50;;;;;;;;;;5024218;28;20048;-81
2022/02/20 02:33:50;;;;;;;0.60;0.60;;;;;;;;;;5008629;28;20084;-80
2022/02/20 02:36:17;;;;;;;0.30;0.30;;;;;;;;;;5023672;28;20037;-81
2022/02/20 02:38:43;;;;;;;;;;;;;;;;;;5023279;28;20029;-81
2022/02/20 02:41:10;;;;;;;0.50;0.50;;;;;;;;;;5018768;28;19919;-79
2022/02/20 02:43:36;;;;;;;;;;;;;;;;;;5024199;28;20038;-80
2022/02/20 02:46:03;;;;;;;0.32;0.32;;;;;;;;;;5017637;28;19920;-79
2022/02/20 02:48:29;;;;;;;0.30;0.30;;;;;;;;;;5024032;28;20034;-79
2022/02/20 02:50:56;;;;;;;0.30;0.30;;;;;;;;;;5024198;28;20382;-79
2022/02/20 02:53:22;;;;;;;0.30;0.30;;;;;;;;;;5023696;28;20587;-80
2022/02/20 02:55:49;;;;;;;0.30;0.30;;;;;;;;;;5023544;28;20132;-79
2022/02/20 02:58:19;;;;;;;0.32;0.32;;;;;;;;;;5023672;28;20072;-79
2022/02/20 03:00:45;;;;;;;0.25;0.25;;;;;;;;;;5023830;28;20044;-80
2022/02/20 03:03:11;;;;;;;0.30;0.30;;;;;;;;;;5024789;28;20025;-80
2022/02/20 03:05:38;;;;;;;0.30;0.30;;;;;;;;;;5024029;28;20091;-80
2022/02/20 03:08:04;;;;;;;0.30;0.30;;;;;;;;;;5023820;28;20211;-79
2022/02/20 03:10:30;;;;;;;0.30;0.30;;;;;;;;;;5026520;28;20052;-81
2022/02/20 03:12:56;;;;;;;0.30;0.30;;;;;;;;;;5034632;28;20025;-81
2022/02/20 03:15:22;;;;;;;0.30;0.30;;;;;;;;;;5035086;28;20040;-78
2022/02/20 03:17:48;;;;;;;0.40;0.40;;;;;;;;;;5023043;28;20029;-80
2022/02/20 03:20:14;;;;;;;0.30;0.30;;;;;;;;;;5020528;28;20710;-80
2022/02/20 03:22:41;;;;;;;0.40;0.40;;;;;;;;;;5023609;28;20489;-81
2022/02/20 03:25:07;;;;;;;0.38;0.38;;;;;;;;;;5019295;28;20037;-80
2022/02/20 03:27:33;;;;;;;0.20;0.20;;;;;;;;;;5026846;28;20060;-81
2022/02/20 03:30:00;;;;;;;0.20;0.20;;;;;;;;;;5022053;28;20032;-81
2022/02/20 03:32:26;;;;;;;0.30;0.30;;;;;;;;;;5021295;28;20053;-81
2022/02/20 03:34:52;;;;;;;0.40;0.40;;;;;;;;;;5023556;28;20046;-81
2022/02/20 03:37:18;;;;;;;0.30;0.30;;;;;;;;;;5023380;28;20033;-81
2022/02/20 03:39:44;;;;;;;0.30;0.30;;;;;;;;;;5022085;28;20047;-80
2022/02/20 03:42:11;;;;;;;0.30;0.30;;;;;;;;;;5021031;28;20063;-79
2022/02/20 03:44:38;;;;;;;0.30;0.30;;;;;;;;;;5021649;28;20117;-79
2022/02/20 03:47:04;;;;;;;;;;;;;;;;;;5021759;28;20071;-78
2022/02/20 03:49:30;;;;;;;0.40;0.40;;;;;;;;;;5013900;28;19951;-78
2022/02/20 03:51:56;;;;;;;0.30;0.30;;;;;;;;;;5020442;28;20053;-78
2022/02/20 03:54:22;;;;;;;0.40;0.40;;;;;;;;;;5002082;28;20049;-78
2022/02/20 03:56:48;;;;;;;0.30;0.30;;;;;;;;;;5022650;28;20029;-78
2022/02/20 03:59:14;;;;;;;0.27;0.27;;;;;;;;;;5022194;28;20166;-78
2022/02/20 04:01:40;;;;;;;0.40;0.40;;;;;;;;;;5020859;28;20404;-78
2022/02/20 04:04:06;;;;;;;0.70;0.70;;;;;;;;;;5022114;28;20474;-78
2022/02/20 04:06:32;;;;;;;0.50;0.50;;;;;;;;;;5019375;28;20034;-78
2022/02/20 04:08:58;;;;;;;0.40;0.40;;;;;;;;;;5021472;28;20508;-78
2022/02/20 04:11:24;;;;;;;0.80;0.80;;;;;;;;;;5018998;28;20060;-78
2022/02/20 04:13:50;;;;;;;0.50;0.50;;;;;;;;;;5021833;28;20304;-79
2022/02/20 04:16:16;;;;;;;0.40;0.40;;;;;;;;;;5022178;28;20083;-79
2022/02/20 04:18:42;;;;;;;0.30;0.30;;;;;;;;;;5025508;28;20036;-79
2022/02/20 04:21:08;;;;;;;0.40;0.40;;;;;;;;;;5021120;28;20025;-79
2022/02/20 04:23:34;;;;;;;0.40;0.40;;;;;;;;;;5021665;28;20056;-78
2022/02/20 04:26:02;;;;;;;0.50;0.50;;;;;;;;;;5017442;28;20044;-78
2022/02/20 04:28:28;;;;;;;;;;;;;;;;;;5026104;28;20036;-78
2022/02/20 04:30:54;;;;;;;0.50;0.50;;;;;;;;;;5024277;28;19996;-78
2022/02/20 04:33:20;;;;;;;0.50;0.50;;;;;;;;;;5026887;28;20798;-79
2022/02/20 04:35:46;;;;;;;0.30;0.30;;;;;;;;;;5023749;28;20280;-78
2022/02/20 04:38:12;;;;;;;0.30;0.30;;;;;;;;;;5026316;28;20280;-78
2022/02/20 04:40:38;;;;;;;0.30;0.30;;;;;;;;;;5023314;28;20049;-77
2022/02/20 04:43:05;;;;;;;0.30;0.30;;;;;;;;;;5024763;28;20568;-78
2022/02/20 04:45:31;;;;;;;0.30;0.30;;;;;;;;;;5024796;28;20048;-79
2022/02/20 04:47:57;;;;;;;0.30;0.30;;;;;;;;;;5026618;28;20037;-80
2022/02/20 04:50:23;;;;;;;0.30;0.30;;;;;;;;;;5025818;28;20029;-80
2022/02/20 04:53:11;;;;;;;0.40;0.40;;;;;;;;;;5026108;28;20034;-80
2022/02/20 04:55:39;;;;;;;0.35;0.35;;;;;;;;;;5025593;28;20303;-80
2022/02/20 04:58:05;;;;;;;0.30;0.30;;;;;;;;;;5025704;28;20045;-80
2022/02/20 05:00:31;;;;;;;0.40;0.40;;;;;;;;;;5025848;28;20033;-80
2022/02/20 05:02:57;;;;;;;0.40;0.40;;;;;;;;;;5026156;28;20036;-81
2022/02/20 05:05:24;;;;;;;0.50;0.50;;;;;;;;;;5024287;28;20048;-84
2022/02/20 05:07:50;;;;;;;0.30;0.30;;;;;;;;;;5025964;28;20504;-84
2022/02/20 05:10:16;;;;;;;0.30;0.30;;;;;;;;;;5026158;28;20128;-84
2022/02/20 05:12:42;;;;;;;0.30;0.30;;;;;;;;;;5025890;28;20045;-81
2022/02/20 05:15:08;;;;;;;0.30;0.30;;;;;;;;;;5026215;28;20037;-82
2022/02/20 05:17:37;;;;;;;0.30;0.30;;;;;;;;;;5025357;28;20396;-82
2022/02/20 05:20:04;;;;;;;0.20;0.20;;;;;;;;;;5028978;28;20548;-82
2022/02/20 05:22:30;;;;;;;0.20;0.20;;;;;;;;;;5026109;28;20029;-81
2022/02/20 05:24:57;;;;;;;0.30;0.30;;;;;;;;;;5025854;28;20841;-82
2022/02/20 05:27:23;;;;;;;0.30;0.30;;;;;;;;;;5025866;28;20053;-82
2022/02/20 05:29:49;;;;;;;0.30;0.30;;;;;;;;;;5025782;28;20029;-82
2022/02/20 05:32:23;;;;;;;0.30;0.30;;;;;;;;;;5025128;28;20158;-83
2022/02/20 05:34:51;;;;;;;0.20;0.20;;;;;;;;;;5025125;28;20512;-83
2022/02/20 05:37:17;;;;;;;0.40;0.40;;;;;;;;;;5025176;28;20500;-84
2022/02/20 05:39:43;;;;;;;0.50;0.50;;;;;;;;;;5025411;28;20033;-84
2022/02/20 05:42:09;;;;;;;0.60;0.60;;;;;;;;;;5026000;28;20560;-83
2022/02/20 05:44:35;;;;;;;0.40;0.40;;;;;;;;;;5025359;28;20280;-83
2022/02/20 05:47:01;;;;;;;0.50;0.50;;;;;;;;;;5024337;28;20450;-84
2022/02/20 05:49:27;;;;;;;0.40;0.40;;;;;;;;;;5025192;28;20029;-87
2022/02/20 05:51:53;;;;;;;0.50;0.50;;;;;;;;;;5025719;28;20041;-86
2022/02/20 05:54:19;;;;;;;0.30;0.30;;;;;;;;;;5024221;28;20037;-87
2022/02/20 05:56:46;;;;;;;0.40;0.40;;;;;;;;;;5025189;28;20064;-86
2022/02/20 05:59:12;;;;;;;0.30;0.30;;;;;;;;;;5025454;28;20529;-85
2022/02/20 06:01:38;;;;;;;0.40;0.40;;;;;;;;;;5024928;28;20341;-85
2022/02/20 06:04:05;;;;;;;0.30;0.30;;;;;;;;;;5025315;28;20106;-86
2022/02/20 06:06:32;;;;;;;0.30;0.30;;;;;;;;;;5025281;28;20033;-86
2022/02/20 06:09:01;;;;;;;0.22;0.22;;;;;;;;;;5024660;28;20021;-86
2022/02/20 06:11:30;;;;;;;0.30;0.30;;;;;;;;;;5025400;28;20140;-87
2022/02/20 06:13:56;;;;;;;0.30;0.30;;;;;;;;;;5025885;28;20032;-87
2022/02/20 06:16:22;;;;;;;0.30;0.30;;;;;;;;;;5025672;28;20044;-86
2022/02/20 06:18:48;;;;;;;0.20;0.20;;;;;;;;;;5028660;28;20049;-86
2022/02/20 06:21:17;;;;;;;0.30;0.30;;;;;;;;;;5026315;28;20029;-83
2022/02/20 06:23:43;;;;;;;0.20;0.20;;;;;;;;;;5025346;28;20115;-87
2022/02/20 06:26:09;;;;;;;0.27;0.27;;;;;;;;;;5025127;28;20029;-84
2022/02/20 06:28:35;;;;;;;0.20;0.20;;;;;;;;;;5025099;28;20040;-82
2022/02/20 06:31:02;;;;;;;0.30;0.30;;;;;;;;;;5025171;28;20033;-82
2022/02/20 06:33:28;;;;;;;0.30;0.30;;;;;;;;;;5025085;28;20025;-82
2022/02/20 06:35:54;;;;;;;0.20;0.20;;;;;;;;;;5022718;28;20055;-81
2022/02/20 06:38:20;;;;;;;0.30;0.30;;;;;;;;;;5019467;28;20121;-83
2022/02/20 06:40:46;;;;;;;0.20;0.20;;;;;;;;;;5024421;28;20116;-84
2022/02/20 06:43:12;;;;;;;0.30;0.30;;;;;;;;;;5024429;28;20045;-84
2022/02/20 06:45:38;;;;;;;0.20;0.20;;;;;;;;;;5022808;28;20036;-85
2022/02/20 06:48:04;;;;;;;0.20;0.20;;;;;;;;;;5025301;28;20037;-85
2022/02/20 06:50:30;;;;;;;0.40;0.40;;;;;;;;;;5024243;28;20029;-86
2022/02/20 06:52:56;;;;;;;0.20;0.20;;;;;;;;;;5024053;28;20147;-85
2022/02/20 06:55:22;;;;;;;0.77;0.77;;;;;;;;;;5023863;28;20042;-85
2022/02/20 06:57:48;;;;;;;0.70;0.70;;;;;;;;;;5023065;28;20038;-86
2022/02/20 07:00:14;;;;;;;0.50;0.50;;;;;;;;;;5025876;28;20025;-88
2022/02/20 07:02:41;;;;;;;0.30;0.30;;;;;;;;;;5030125;28;20108;-95
2022/02/20 07:05:08;;;;;;;0.30;0.30;;;;;;;;;;5038246;28;20108;-90
2022/02/20 07:07:34;;;;;;;;;;;;;;;;;;5028556;28;20030;-92
2022/02/20 07:10:03;;;;;;;0.40;0.40;;;;;;;;;;5017463;28;20028;-92
2022/02/20 07:12:30;;;;;;;0.40;0.40;;;;;;;;;;5030282;28;20053;-89
2022/02/20 07:14:56;;;;;;;0.40;0.40;;;;;;;;;;5027137;28;20138;-89
2022/02/20 07:17:22;;;;;;;0.30;0.30;;;;;;;;;;5025150;28;20037;-86
2022/02/20 07:19:48;;;;;;;0.70;0.70;;;;;;;;;;5027563;28;20033;-84
2022/02/20 07:22:14;;;;;;;0.73;0.73;;;;;;;;;;5023752;28;20108;-87
2022/02/20 07:24:41;;;;;;;1.10;1.10;;;;;;;;;;5022005;28;20043;-85
2022/02/20 07:27:07;;;;;;;0.95;0.95;;;;;;;;;;5022819;28;20021;-84
2022/02/20 07:29:33;;;;;;;1.10;1.10;;;;;;;;;;5018220;28;20413;-86
2022/02/20 07:31:59;;;;;;;0.60;0.60;;;;;;;;;;5015770;28;20405;-86
2022/02/20 07:34:25;;;;;;;1.10;1.10;;;;;;;;;;5019581;28;20044;-89
2022/02/20 07:36:51;;;;;;;0.90;0.90;;;;;;;;;;5022816;28;20846;-81
2022/02/20 07:39:17;;;;;;;0.60;0.60;;;;;;;;;;5019618;28;20268;-82
2022/02/20 07:41:44;;;;;;;0.65;0.65;;;;;;;;;;5022830;28;20025;-82
2022/02/20 07:44:10;;;;;;;0.50;0.50;;;;;;;;;;5022236;28;20065;-84
2022/02/20 07:46:36;;;;;;;0.77;0.77;;;;;;;;;;5023129;28;20057;-82
2022/02/20 07:49:02;;;;;;;0.40;0.40;;;;;;;;;;5019894;28;20558;-83
2022/02/20 07:51:29;;;;;;;0.53;0.53;;;;;;;;;;5031711;28;20034;-95
2022/02/20 07:53:55;;;;;;;0.30;0.30;;;;;;;;;;5019131;28;20292;-81
2022/02/20 07:56:21;;;;;;;0.60;0.60;;;;;;;;;;5021725;28;20589;-88
2022/02/20 07:58:48;;;;;;;0.35;0.35;;;;;;;;;;5016099;28;20133;-88
2022/02/20 08:01:14;;;;;;;0.40;0.40;;;;;;;;;;5023258;28;20128;-87
2022/02/20 08:03:40;;;;;;;0.45;0.45;;;;;;;;;;5021218;28;20045;-87
2022/02/20 08:06:06;;;;;;;0.50;0.50;;;;;;;;;;5015836;28;20108;-86
2022/02/20 08:08:33;;;;;;;0.70;0.70;;;;;;;;;;5017742;28;20033;-87
2022/02/20 08:11:00;;;;;;;0.50;0.50;;;;;;;;;;5013958;28;20125;-80
2022/02/20 08:13:26;;;;;;;;;;;;;;;;;;5020516;28;20057;-80
2022/02/20 08:15:52;;;;;;;0.40;0.40;;;;;;;;;;5021118;28;20439;-79
2022/02/20 08:18:18;;;;;;;0.40;0.40;;;;;;;;;;5021158;28;20035;-78
2022/02/20 08:20:44;;;;;;;0.30;0.30;;;;;;;;;;5020383;28;20044;-79
2022/02/20 08:23:17;;;;;;;0.40;0.40;;;;;;;;;;5020709;28;20041;-80
2022/02/20 08:25:44;;;;;;;0.30;0.30;;;;;;;;;;5017889;28;20195;-80
2022/02/20 08:28:10;;;;;;;0.30;0.30;;;;;;;;;;5017937;28;20037;-81
2022/02/20 08:30:36;;;;;;;0.20;0.20;;;;;;;;;;5018888;28;20095;-80
2022/02/20 08:33:03;;;;;;;0.30;0.30;;;;;;;;;;5017865;28;20033;-79
2022/02/20 08:35:29;;;;;;;0.30;0.30;;;;;;;;;;5021108;28;20293;-80
2022/02/20 08:37:56;;;;;;;0.30;0.30;;;;;;;;;;5020935;28;20509;-79
2022/02/20 08:40:22;;;;;;;0.30;0.30;;;;;;;;;;5018011;28;20033;-80
2022/02/20 08:42:48;;;;;;;0.40;0.40;;;;;;;;;;5020115;28;20110;-82
2022/02/20 08:45:16;;;;;;;0.30;0.30;;;;;;;;;;5020229;28;20060;-80
2022/02/20 08:47:42;;;;;;;0.30;0.30;;;;;;;;;;5018041;28;20038;-80
2022/02/20 08:50:09;;;;;;;0.50;0.50;;;;;;;;;;5019692;28;20036;-79
2022/02/20 08:52:36;;;;;;;0.70;0.70;;;;;;;;;;5014206;28;20141;-79
2022/02/20 08:55:02;;;;;;;;;;;;;;;;;;5019095;28;20052;-79
2022/02/20 08:57:28;;;;;;;0.70;0.70;;;;;;;;;;5005495;28;19912;-80
2022/02/20 08:59:55;;;;;;;0.60;0.60;;;;;;;;;;5019633;28;20033;-79
2022/02/20 09:02:21;;;;;;;0.50;0.50;;;;;;;;;;5019132;28;20034;-79
2022/02/20 09:04:47;;;;;;;0.73;0.73;;;;;;;;;;5021238;28;20037;-83
2022/02/20 09:07:13;;;;;;;0.90;0.90;;;;;;;;;;5020407;28;20052;-81
2022/02/20 09:09:40;;;;;;;0.50;0.50;;;;;;;;;;5019518;28;20044;-82
2022/02/20 09:12:06;;;;;;;0.70;0.70;;;;;;;;;;5021774;28;20033;-83
2022/02/20 09:14:33;;;;;;;0.50;0.50;;;;;;;;;;5023536;28;20060;-82
2022/02/20 09:19:45;;;;;;;0.50;0.50;;;;;;;;;;5028051;28;20091;-81
2022/02/20 09:22:11;;;;;;;0.50;0.50;;;;;;;;;;5022372;28;20045;-82
2022/02/20 09:24:37;;;;;;;1.10;1.10;;;;;;;;;;5019095;28;20278;-82
2022/02/20 09:27:06;;;;;;;0.90;0.90;;;;;;;;;;5022313;28;20070;-80
2022/02/20 09:29:47;;;;;;;0.80;0.80;;;;;;;;;;5018199;28;20061;-81
2022/02/20 09:32:17;;;;;;;0.60;0.60;;;;;;;;;;5020141;28;20457;-83
2022/02/20 09:37:59;;;;;;;0.50;0.50;;;;;;;;;;5018963;28;20107;-80
2022/02/20 09:40:25;;;;;;;0.50;0.50;;;;;;;;;;5019196;28;20039;-81
2022/02/20 09:42:52;;;;;;;1.05;1.05;;;;;;;;;;5012732;28;20076;-81
2022/02/20 09:45:18;;;;;;;0.60;0.60;;;;;;;;;;5023384;28;20033;-81
2022/02/20 09:47:45;;;;;;;0.80;0.80;;;;;;;;;;5020259;28;20029;-81
2022/02/20 09:50:11;;;;;;;0.85;0.85;;;;;;;;;;5019045;28;20280;-81
2022/02/20 09:52:37;;;;;;;0.50;0.50;;;;;;;;;;5018541;28;20029;-81
2022/02/20 09:55:04;;;;;;;0.50;0.50;;;;;;;;;;5009740;28;20045;-82
2022/02/20 09:57:30;;;;;;;0.40;0.40;;;;;;;;;;5018746;28;20045;-85
2022/02/20 09:59:56;;;;;;;0.50;0.50;;;;;;;;;;5020502;28;20042;-82
2022/02/20 10:02:25;;;;;;;0.60;0.60;;;;;;;;;;5016580;28;20034;-82
2022/02/20 10:04:52;;;;;;;0.50;0.50;;;;;;;;;;5021346;28;20036;-83
2022/02/20 10:07:27;;;;;;;0.40;0.40;;;;;;;;;;5012694;28;20092;-82
2022/02/20 10:09:54;;;;;;;0.40;0.40;;;;;;;;;;5021699;28;20029;-82
2022/02/20 10:12:21;;;;;;;0.30;0.30;;;;;;;;;;5020567;28;20040;-81
2022/02/20 10:14:47;;;;;;;;;;;;;;;;;;5019191;28;20046;-83
2022/02/20 10:17:14;;;;;;;0.60;0.60;;;;;;;;;;5020578;28;20014;-82
2022/02/20 10:20:01;;;;;;;0.40;0.40;;;;;;;;;;5016163;28;20041;-82
2022/02/20 10:22:29;;;;;;;0.50;0.50;;;;;;;;;;5019583;28;20414;-83
2022/02/20 10:25:04;;;;;;;0.30;0.30;;;;;;;;;;5010861;28;20030;-83
2022/02/20 10:27:30;;;;;;;0.50;0.50;;;;;;;;;;5015377;28;20081;-82
2022/02/20 10:30:09;;;;;;;0.40;0.40;;;;;;;;;;5017096;28;20035;-82
2022/02/20 10:32:35;;;;;;;0.50;0.50;;;;;;;;;;5019448;28;20053;-82
2022/02/20 10:35:08;;;;;;;0.40;0.40;;;;;;;;;;5016117;28;20067;-82
2022/02/20 10:37:34;;;;;;;0.40;0.40;;;;;;;;;;5018386;28;20108;-82
2022/02/20 10:40:01;;;;;;;0.40;0.40;;;;;;;;;;5001593;28;20048;-82
2022/02/20 10:42:27;;;;;;;0.90;0.90;;;;;;;;;;5013944;28;20477;-82
2022/02/20 10:44:56;;;;;;;1.10;1.10;;;;;;;;;;5020935;28;20112;-82
2022/02/20 10:47:22;;;;;;;0.80;0.80;;;;;;;;;;5016819;28;20034;-83
2022/02/20 10:49:49;;;;;;;0.70;0.70;;;;;;;;;;5019108;28;20060;-82
2022/02/20 10:52:22;;;;;;;0.60;0.60;;;;;;;;;;5015930;28;20516;-78
2022/02/20 10:55:03;;;;;;;0.40;0.40;;;;;;;;;;5014981;28;20123;-81
2022/02/20 10:57:37;;;;;;;0.40;0.40;;;;;;;;;;5017907;28;20080;-81
2022/02/20 11:00:16;;;;;;;0.40;0.40;;;;;;;;;;5009557;28;20457;-82
2022/02/20 11:02:43;;;;;;;0.57;0.57;;;;;;;;;;5014931;28;20120;-82
2022/02/20 11:05:10;;;;;;;0.50;0.50;;;;;;;;;;5021628;28;20025;-80
2022/02/20 11:07:37;;;;;;;0.40;0.40;;;;;;;;;;5018147;28;20045;-80
2022/02/20 11:10:03;;;;;;;;;;;;;;;;;;5020421;28;20025;-81
2022/02/20 11:12:30;;;;;;;1.40;1.40;;;;;;;;;;5020241;28;19983;-80
2022/02/20 11:14:57;;;;;;;0.90;0.90;;;;;;;;;;5020139;28;20037;-81
2022/02/20 11:17:23;;;;;;;;;;;;;;;;;;5020233;28;20120;-81
2022/02/20 11:19:51;;;;;;;1.10;1.10;;;;;;;;;;5021036;28;20000;-80
2022/02/20 11:22:18;;;;;;;1.10;1.10;;;;;;;;;;5019242;28;20116;-81
2022/02/20 11:24:45;;;;;;;1.27;1.27;;;;;;;;;;5019713;28;20501;-81
2022/02/20 11:27:15;;;;;;;1.05;1.05;;;;;;;;;;5019425;28;20045;-81
2022/02/20 11:29:41;;;;;;;0.80;0.80;;;;;;;;;;5013052;28;20044;-80
2022/02/20 11:32:07;;;;;;;0.90;0.90;;;;;;;;;;5020417;28;20061;-80
2022/02/20 11:34:42;;;;;;;1.05;1.05;;;;;;;;;;5018973;28;20112;-80
2022/02/20 11:37:09;;;;;;;0.80;0.80;;;;;;;;;;5020050;28;20041;-82
2022/02/20 11:39:35;;;;;;;0.90;0.90;;;;;;;;;;5018920;28;20036;-82
2022/02/20 11:42:10;;;;;;;0.90;0.90;;;;;;;;;;5020022;28;20043;-81
2022/02/20 11:44:45;;;;;;;0.80;0.80;;;;;;;;;;5019210;28;20045;-80
2022/02/20 11:47:31;;;;;;;0.80;0.80;;;;;;;;;;5019882;28;20051;-80
2022/02/20 11:50:17;;;;;;;0.70;0.70;;;;;;;;;;5017950;28;20108;-80
2022/02/20 11:52:51;;;;;;;0.70;0.70;;;;;;;;;;5019411;28;20511;-85
2022/02/20 11:55:20;;;;;;;0.70;0.70;;;;;;;;;;5020234;28;20029;-85
2022/02/20 11:57:46;;;;;;;1.35;1.35;;;;;;;;;;5019101;28;20049;-89
2022/02/20 12:00:14;;;;;;;0.70;0.70;;;;;;;;;;5022335;28;20512;-85
2022/02/20 12:03:19;;;;;;;0.70;0.70;;;;;;;;;;5018790;28;20037;-87
2022/02/20 12:06:03;;;;;;;0.50;0.50;;;;;;;;;;4950765;28;20039;-87
2022/02/20 12:08:34;;;;;;;0.50;0.50;;;;;;;;;;4950445;28;20043;-86
2022/02/20 12:11:09;;;;;;;1.30;1.30;;;;;;;;;;4950244;28;20035;-88
2022/02/20 12:13:43;;;;;;;1.30;1.30;;;;;;;;;;4956435;28;20109;-89
2022/02/20 12:16:38;;;;;;;0.90;0.90;;;;;;;;;;4958117;28;20078;-84
2022/02/20 12:19:09;;;;;;;0.93;0.93;;;;;;;;;;4934926;28;20086;-89
2022/02/20 12:21:58;;;;;;;0.70;0.70;;;;;;;;;;4955900;28;20050;-88
2022/02/20 12:24:28;;;;;;;0.70;0.70;;;;;;;;;;4954880;28;20049;-88
2022/02/20 12:26:58;;;;;;;0.70;0.70;;;;;;;;;;4957077;28;20201;-88
2022/02/20 12:29:32;;;;;;;0.90;0.90;;;;;;;;;;4960539;28;20693;-86
2022/02/20 12:31:58;;;;;;;0.70;0.70;;;;;;;;;;4956654;28;20065;-86
2022/02/20 12:34:43;;;;;;;0.80;0.80;;;;;;;;;;4962473;28;20066;-87
2022/02/20 12:37:11;;;;;;;0.60;0.60;;;;;;;;;;4959152;28;20031;-87
2022/02/20 12:39:37;;;;;;;0.80;0.80;;;;;;;;;;4962496;28;20034;-87
2022/02/20 12:42:04;;;;;;;0.60;0.60;;;;;;;;;;5030309;28;20025;-87
2022/02/20 12:44:30;;;;;;;0.70;0.70;;;;;;;;;;5022920;28;20030;-88
2022/02/20 12:46:56;;;;;;;0.70;0.70;;;;;;;;;;5021652;28;20040;-88
2022/02/20 12:49:22;;;;;;;0.70;0.70;;;;;;;;;;5025341;28;20033;-87
2022/02/20 12:51:49;;;;;;;0.77;0.77;;;;;;;;;;5024843;28;20040;-87
2022/02/20 12:54:15;;;;;;;0.60;0.60;;;;;;;;;;5023961;28;20592;-87
2022/02/20 12:56:41;;;;;;;0.50;0.50;;;;;;;;;;5023785;28;20055;-87
2022/02/20 12:59:07;;;;;;;0.60;0.60;;;;;;;;;;5024332;28;20064;-87
2022/02/20 13:01:33;;;;;;;0.50;0.50;;;;;;;;;;5023375;28;20404;-88
2022/02/20 13:03:59;;;;;;;0.50;0.50;;;;;;;;;;5021482;28;20608;-88
2022/02/20 13:06:55;;;;;;;0.53;0.53;;;;;;;;;;5018724;28;20033;-79
2022/02/20 13:09:21;;;;;;;0.57;0.57;;;;;;;;;;5020485;28;20036;-79
2022/02/20 13:11:47;;;;;;;0.60;0.60;;;;;;;;;;5020057;28;20215;-79
2022/02/20 13:14:14;;;;;;;0.60;0.60;;;;;;;;;;5022032;28;20029;-78
2022/02/20 13:16:51;;;;;;;0.50;0.50;;;;;;;;;;5020943;28;20037;-78
2022/02/20 13:19:17;;;;;;;;;;;;;;;;;;5024944;28;20033;-78
2022/02/20 13:21:43;;;;;;;0.60;0.60;;;;;;;;;;5023777;28;19912;-79
2022/02/20 13:24:09;;;;;;;0.50;0.50;;;;;;;;;;5023679;28;20045;-79
2022/02/20 13:26:36;;;;;;;0.40;0.40;;;;;;;;;;5020111;28;20025;-79
2022/02/20 13:29:02;;;;;;;0.50;0.50;;;;;;;;;;5021517;28;20288;-79
2022/02/20 13:31:38;;;;;;;0.60;0.60;;;;;;;;;;5020657;28;20528;-79
2022/02/20 13:34:04;;;;;;;0.70;0.70;;;;;;;;;;5021048;28;20750;-79
2022/02/20 13:36:31;;;;;;;0.60;0.60;;;;;;;;;;5019922;28;20042;-79
2022/02/20 13:39:08;;;;;;;0.50;0.50;;;;;;;;;;5022329;28;20091;-79
2022/02/20 13:41:35;;;;;;;0.40;0.40;;;;;;;;;;5022064;28;20091;-79
2022/02/20 13:44:03;;;;;;;0.40;0.40;;;;;;;;;;5018327;28;20038;-80
2022/02/20 13:46:35;;;;;;;0.40;0.40;;;;;;;;;;5002997;28;20116;-79
2022/02/20 13:49:01;;;;;;;0.40;0.40;;;;;;;;;;5021732;28;20033;-80
2022/02/20 13:51:28;;;;;;;0.60;0.60;;;;;;;;;;5022389;28;20033;-80
2022/02/20 13:54:08;;;;;;;0.45;0.45;;;;;;;;;;5021650;28;20029;-79
2022/02/20 13:56:43;;;;;;;0.50;0.50;;;;;;;;;;5023063;28;20106;-79
2022/02/20 13:59:10;;;;;;;0.60;0.60;;;;;;;;;;5021320;28;20053;-79
2022/02/20 14:01:44;;;;;;;0.98;0.98;;;;;;;;;;5017591;28;20587;-80
2022/02/20 14:04:20;;;;;;;0.70;0.70;;;;;;;;;;5020074;28;20033;-79
2022/02/20 14:06:46;;;;;;;0.83;0.83;;;;;;;;;;5022206;28;20044;-78
2022/02/20 14:09:13;;;;;;;0.50;0.50;;;;;;;;;;5022186;28;20104;-79
2022/02/20 14:11:39;;;;;;;0.50;0.50;;;;;;;;;;5020513;28;20034;-80
2022/02/20 14:14:18;;;;;;;0.50;0.50;;;;;;;;;;5020711;28;20611;-79
2022/02/20 14:16:57;;;;;;;0.50;0.50;;;;;;;;;;5018548;28;20037;-80
2022/02/20 14:19:23;;;;;;;0.40;0.40;;;;;;;;;;5023687;28;20033;-80
2022/02/20 14:21:59;;;;;;;0.50;0.50;;;;;;;;;;5019904;28;20029;-80
2022/02/20 14:24:26;;;;;;;0.40;0.40;;;;;;;;;;5019762;28;20080;-80
2022/02/20 14:27:03;;;;;;;0.40;0.40;;;;;;;;;;5019362;28;20609;-78
2022/02/20 14:29:30;;;;;;;0.40;0.40;;;;;;;;;;5021210;28;20167;-79
2022/02/20 14:32:03;;;;;;;0.50;0.50;;;;;;;;;;5018834;28;20036;-80
2022/02/20 14:34:29;;;;;;;1.20;1.20;;;;;;;;;;5018176;28;20395;-79
2022/02/20 14:37:08;;;;;;;1.00;1.00;;;;;;;;;;5016015;28;20063;-79
2022/02/20 14:39:53;;;;;;;0.90;0.90;;;;;;;;;;5019519;28;20123;-80
2022/02/20 14:42:20;;;;;;;0.90;0.90;;;;;;;;;;5022442;28;20378;-81
2022/02/20 14:44:47;;;;;;;0.80;0.80;;;;;;;;;;5019898;28;20083;-81
2022/02/20 14:47:13;;;;;;;1.52;1.52;;;;;;;;;;5021273;28;20099;-83
2022/02/20 14:49:39;;;;;;;0.70;0.70;;;;;;;;;;5021888;28;20037;-80
2022/02/20 14:52:05;;;;;;;0.90;0.90;;;;;;;;;;5019044;28;20053;-81
2022/02/20 14:54:31;;;;;;;0.90;0.90;;;;;;;;;;5018104;28;21049;-82
2022/02/20 14:56:59;;;;;;;0.70;0.70;;;;;;;;;;5019034;28;20034;-82